aviador You're here:

VGHS Decoded Metar

in
Report Time2017-06-25 20:30:00
UTC Time2017-06-25 20:44:28
Flight Rules ifr IFR
Wind080° at 08 kt
W.Decomp.*RWY 14: 4.0 kt HW 6.9 kt LCW
W.Rank080° ranks 13
Current wind is above 080° avg. (5.6)
Visibility4000 m
Phenomena:Haze
Clouds:Scattered 012 Hf
Broken 100 Hf
Expected CloudBase > 1,200 ft AGL from Temp-Dew spread
Ceiling10,000 ft
Temp28°C
Dew Point25°C (84% RH)
Heat Index32.7°C
QNH1001 hPa
Raw Report
METAR VGHS 252030Z 08008KT 4000 HZ SCT012 BKN100 28/25 Q1001 NOSIG=

Extra information for VGHS:More info

Social comments